Time;durP1;ratioP1;P1;durP2;ratioP2;P2;SDS_P1;SDS_P2;PMS_P1;PMS_P2;Temp;Humidity;BMP_temperature;BMP_pressure;BME280_temperature;BME280_humidity;BME280_pressure;Samples;Min_cycle;Max_cycle;Signal;HPM_P1;HPM_P2
2020/12/09 00:01:10;;;;;;;51.72;30.45;;;;;;;;;;5054796;28;20024;-79
2020/12/09 00:03:57;;;;;;;45.47;29.77;;;;;;;;;;5056548;28;20034;-79
2020/12/09 00:06:42;;;;;;;54.83;32.75;;;;;;;;;;5058957;28;20897;-79
2020/12/09 00:09:28;;;;;;;50.10;31.77;;;;;;;;;;5060624;28;20023;-79
2020/12/09 00:12:14;;;;;;;54.47;32.65;;;;;;;;;;5055136;28;20035;-79
2020/12/09 00:15:00;;;;;;;50.50;31.90;;;;;;;;;;5060852;28;20109;-79
2020/12/09 00:17:45;;;;;;;51.65;31.27;;;;;;;;;;5058618;28;20131;-79
2020/12/09 00:20:30;;;;;;;54.17;32.03;;;;;;;;;;5059645;28;20027;-79
2020/12/09 00:23:16;;;;;;;55.40;32.42;;;;;;;;;;5054907;28;20186;-79
2020/12/09 00:26:01;;;;;;;55.13;31.88;;;;;;;;;;5058763;28;20092;-79
2020/12/09 00:28:46;;;;;;;59.28;32.28;;;;;;;;;;5057240;28;20020;-80
2020/12/09 00:31:32;;;;;;;52.50;31.85;;;;;;;;;;5052230;28;20120;-80
2020/12/09 00:34:17;;;;;;;54.65;32.38;;;;;;;;;;5067515;28;20120;-80
2020/12/09 00:37:02;;;;;;;51.20;31.23;;;;;;;;;;5062144;28;20111;-80
2020/12/09 00:39:48;;;;;;;50.67;29.58;;;;;;;;;;5060891;28;20442;-80
2020/12/09 00:42:34;;;;;;;51.95;30.63;;;;;;;;;;5056816;28;20021;-80
2020/12/09 00:45:19;;;;;;;47.38;30.17;;;;;;;;;;5064523;28;20195;-79
2020/12/09 00:48:04;;;;;;;58.45;33.45;;;;;;;;;;5059751;28;20032;-80
2020/12/09 00:50:49;;;;;;;57.58;32.78;;;;;;;;;;5058824;28;20482;-79
2020/12/09 00:53:35;;;;;;;51.45;30.23;;;;;;;;;;5061338;28;20024;-80
2020/12/09 00:56:20;;;;;;;52.03;32.83;;;;;;;;;;5056239;28;20175;-80
2020/12/09 00:59:05;;;;;;;51.53;32.38;;;;;;;;;;5052882;28;20044;-79
2020/12/09 01:01:50;;;;;;;52.63;32.60;;;;;;;;;;5057026;28;20021;-80
2020/12/09 01:04:35;;;;;;;49.83;31.42;;;;;;;;;;5052113;28;20020;-80
2020/12/09 01:07:21;;;;;;;55.20;31.85;;;;;;;;;;5057022;28;20039;-79
2020/12/09 01:10:07;;;;;;;55.13;31.15;;;;;;;;;;5059263;28;20027;-80
2020/12/09 01:12:52;;;;;;;53.75;31.58;;;;;;;;;;5061362;28;20388;-80
2020/12/09 01:15:38;;;;;;;58.22;33.25;;;;;;;;;;5055089;28;20089;-80
2020/12/09 01:18:23;;;;;;;51.13;32.22;;;;;;;;;;5061945;28;20475;-80
2020/12/09 01:21:08;;;;;;;47.72;30.80;;;;;;;;;;5055859;28;20391;-80
2020/12/09 01:23:53;;;;;;;51.83;30.73;;;;;;;;;;5065393;28;20052;-80
2020/12/09 01:26:39;;;;;;;51.33;31.38;;;;;;;;;;5060791;28;20024;-80
2020/12/09 01:29:24;;;;;;;47.85;29.98;;;;;;;;;;5055135;28;20031;-80
2020/12/09 01:32:09;;;;;;;57.03;34.42;;;;;;;;;;5055840;28;20025;-79
2020/12/09 01:34:55;;;;;;;48.33;29.23;;;;;;;;;;5045315;28;20066;-80
2020/12/09 01:37:40;;;;;;;47.53;30.13;;;;;;;;;;5048397;28;20255;-80
2020/12/09 01:40:25;;;;;;;52.90;31.75;;;;;;;;;;5042201;28;20025;-80
2020/12/09 01:43:10;;;;;;;54.33;31.90;;;;;;;;;;5043252;28;20101;-80
2020/12/09 01:45:55;;;;;;;48.33;29.98;;;;;;;;;;5039663;28;20052;-80
2020/12/09 01:48:41;;;;;;;51.67;32.92;;;;;;;;;;5043543;28;20111;-80
2020/12/09 01:51:28;;;;;;;56.65;32.55;;;;;;;;;;5039068;28;20664;-79
2020/12/09 01:54:13;;;;;;;55.03;32.50;;;;;;;;;;5043748;28;20024;-79
2020/12/09 01:57:08;;;;;;;60.35;33.40;;;;;;;;;;5040621;28;20016;-79
2020/12/09 01:59:54;;;;;;;59.05;33.30;;;;;;;;;;5044561;28;20020;-80
2020/12/09 02:02:39;;;;;;;57.22;32.67;;;;;;;;;;5038933;28;20024;-79
2020/12/09 02:05:24;;;;;;;62.75;34.28;;;;;;;;;;5045752;28;20028;-81
2020/12/09 02:08:10;;;;;;;57.20;33.75;;;;;;;;;;5048911;28;20025;-80
2020/12/09 02:10:59;;;;;;;59.75;34.28;;;;;;;;;;5037042;28;20058;-80
2020/12/09 02:13:45;;;;;;;55.63;32.67;;;;;;;;;;5043291;28;20032;-80
2020/12/09 02:16:30;;;;;;;55.67;33.63;;;;;;;;;;5044199;28;20536;-80
2020/12/09 02:19:15;;;;;;;60.22;34.60;;;;;;;;;;5042180;28;20048;-80
2020/12/09 02:22:10;;;;;;;56.33;34.40;;;;;;;;;;5041727;28;20027;-80
2020/12/09 02:24:56;;;;;;;52.20;32.38;;;;;;;;;;5044065;28;20020;-79
2020/12/09 02:27:41;;;;;;;53.03;31.98;;;;;;;;;;5039220;28;20020;-79
2020/12/09 02:30:26;;;;;;;63.55;36.63;;;;;;;;;;5043413;28;20099;-79
2020/12/09 02:33:11;;;;;;;55.88;31.33;;;;;;;;;;5046290;28;20056;-78
2020/12/09 02:35:58;;;;;;;56.13;31.90;;;;;;;;;;5068061;28;20103;-79
2020/12/09 02:38:43;;;;;;;55.83;32.55;;;;;;;;;;5063840;28;20054;-79
2020/12/09 02:41:28;;;;;;;58.00;34.60;;;;;;;;;;5063729;28;20031;-79
2020/12/09 02:44:13;;;;;;;58.78;35.28;;;;;;;;;;5064570;28;20356;-79
2020/12/09 02:47:02;;;;;;;61.95;35.13;;;;;;;;;;5064945;28;20039;-78
2020/12/09 02:49:47;;;;;;;51.13;31.13;;;;;;;;;;5062667;28;20040;-77
2020/12/09 02:52:32;;;;;;;58.00;33.00;;;;;;;;;;5064919;28;20363;-80
2020/12/09 02:55:18;;;;;;;53.30;33.30;;;;;;;;;;5059133;28;20390;-78
2020/12/09 02:58:04;;;;;;;54.42;33.40;;;;;;;;;;5062068;28;20450;-79
2020/12/09 03:00:52;;;;;;;55.00;34.45;;;;;;;;;;5064162;28;20104;-78
2020/12/09 03:03:37;;;;;;;54.92;33.80;;;;;;;;;;5063085;28;20119;-78
2020/12/09 03:06:22;;;;;;;56.72;34.92;;;;;;;;;;5066199;28;20020;-79
2020/12/09 03:09:07;;;;;;;55.88;35.05;;;;;;;;;;5063875;28;20333;-79
2020/12/09 03:11:53;;;;;;;60.83;35.47;;;;;;;;;;5064506;28;20035;-78
2020/12/09 03:14:38;;;;;;;53.53;33.08;;;;;;;;;;5062112;28;20453;-79
2020/12/09 03:17:23;;;;;;;60.78;35.42;;;;;;;;;;5063076;28;20037;-79
2020/12/09 03:20:08;;;;;;;52.53;32.15;;;;;;;;;;5063193;28;20044;-79
2020/12/09 03:22:54;;;;;;;55.90;34.58;;;;;;;;;;5065954;28;20074;-80
2020/12/09 03:25:39;;;;;;;53.17;32.65;;;;;;;;;;5062382;28;20123;-79
2020/12/09 03:28:24;;;;;;;56.90;34.28;;;;;;;;;;5062504;28;20036;-80
2020/12/09 03:31:09;;;;;;;57.92;33.03;;;;;;;;;;5055735;28;20094;-79
2020/12/09 03:33:55;;;;;;;55.55;32.42;;;;;;;;;;5054370;28;20044;-79
2020/12/09 03:36:40;;;;;;;57.63;34.75;;;;;;;;;;5063019;28;20490;-79
2020/12/09 03:39:25;;;;;;;59.20;34.83;;;;;;;;;;5060433;28;20028;-79
2020/12/09 03:42:10;;;;;;;59.70;35.75;;;;;;;;;;5063465;28;20035;-79
2020/12/09 03:44:55;;;;;;;56.45;34.10;;;;;;;;;;5063097;28;20024;-79
2020/12/09 03:47:41;;;;;;;65.05;33.80;;;;;;;;;;5058945;28;20312;-78
2020/12/09 03:50:26;;;;;;;58.22;38.17;;;;;;;;;;5063444;28;20029;-79
2020/12/09 03:53:11;;;;;;;58.53;35.33;;;;;;;;;;5064196;28;20479;-79
2020/12/09 03:55:56;;;;;;;55.63;35.83;;;;;;;;;;5057534;28;20028;-78
2020/12/09 03:58:42;;;;;;;56.88;34.83;;;;;;;;;;5055848;28;20108;-78
2020/12/09 04:01:27;;;;;;;53.90;33.58;;;;;;;;;;5058056;28;20021;-78
2020/12/09 04:04:13;;;;;;;55.85;33.80;;;;;;;;;;5061791;28;20099;-78
2020/12/09 04:06:58;;;;;;;61.90;37.47;;;;;;;;;;5057062;28;20017;-78
2020/12/09 04:09:43;;;;;;;56.72;33.78;;;;;;;;;;5049809;28;20082;-78
2020/12/09 04:12:28;;;;;;;58.80;34.63;;;;;;;;;;5053641;28;20028;-79
2020/12/09 04:15:13;;;;;;;56.05;33.20;;;;;;;;;;5055166;28;20108;-79
2020/12/09 04:17:59;;;;;;;59.03;35.65;;;;;;;;;;5052556;28;20029;-78
2020/12/09 04:20:44;;;;;;;58.83;35.38;;;;;;;;;;5046267;28;20033;-78
2020/12/09 04:23:29;;;;;;;63.88;37.88;;;;;;;;;;5063059;28;20110;-78
2020/12/09 04:26:15;;;;;;;57.67;36.03;;;;;;;;;;5061330;28;20074;-78
2020/12/09 04:29:00;;;;;;;60.53;36.08;;;;;;;;;;5063189;28;20348;-79
2020/12/09 04:31:45;;;;;;;57.38;35.53;;;;;;;;;;5060374;28;20037;-77
2020/12/09 04:34:31;;;;;;;62.15;37.80;;;;;;;;;;5056803;28;20130;-78
2020/12/09 04:37:20;;;;;;;58.85;35.15;;;;;;;;;;5057069;28;20025;-79
2020/12/09 04:40:06;;;;;;;54.35;34.35;;;;;;;;;;5055741;28;20039;-79
2020/12/09 04:42:55;;;;;;;68.35;40.00;;;;;;;;;;5057278;28;20029;-79
2020/12/09 04:45:41;;;;;;;66.18;38.85;;;;;;;;;;5062795;28;20110;-79
2020/12/09 04:48:28;;;;;;;60.33;34.88;;;;;;;;;;5053236;28;20028;-79
2020/12/09 04:51:22;;;;;;;58.00;34.10;;;;;;;;;;5058183;28;20037;-79
2020/12/09 04:54:13;;;;;;;56.38;33.60;;;;;;;;;;5060129;28;20111;-79
2020/12/09 04:57:04;;;;;;;52.28;33.88;;;;;;;;;;5058474;28;20479;-79
2020/12/09 04:59:58;;;;;;;51.15;31.83;;;;;;;;;;5056571;28;20032;-79
2020/12/09 05:02:44;;;;;;;55.78;33.60;;;;;;;;;;5053596;28;20082;-79
2020/12/09 05:05:29;;;;;;;51.03;32.40;;;;;;;;;;5046215;28;20052;-79
2020/12/09 05:08:19;;;;;;;54.78;33.55;;;;;;;;;;5057862;28;20031;-79
2020/12/09 05:11:05;;;;;;;57.47;36.03;;;;;;;;;;5059257;28;20448;-79
2020/12/09 05:13:53;;;;;;;77.20;38.05;;;;;;;;;;5058562;28;20070;-78
2020/12/09 05:16:43;;;;;;;61.80;36.05;;;;;;;;;;5058365;28;20059;-78
2020/12/09 05:19:29;;;;;;;55.08;33.67;;;;;;;;;;5054422;28;20040;-79
2020/12/09 05:22:19;;;;;;;50.65;31.70;;;;;;;;;;5054916;28;20031;-80
2020/12/09 05:25:07;;;;;;;55.40;34.88;;;;;;;;;;5055844;28;20453;-79
2020/12/09 05:27:53;;;;;;;54.83;33.08;;;;;;;;;;5058281;28;20397;-79
2020/12/09 05:30:40;;;;;;;56.40;34.58;;;;;;;;;;5056537;28;20036;-78
2020/12/09 05:33:32;;;;;;;52.08;34.55;;;;;;;;;;5055492;28;20040;-78
2020/12/09 05:36:18;;;;;;;48.92;30.77;;;;;;;;;;5057223;28;20065;-78
2020/12/09 05:39:04;;;;;;;50.63;31.88;;;;;;;;;;5052224;28;20013;-77
2020/12/09 05:41:49;;;;;;;51.33;33.00;;;;;;;;;;5059751;28;20372;-78
2020/12/09 05:44:35;;;;;;;53.90;32.67;;;;;;;;;;5054554;28;20035;-79
2020/12/09 05:47:21;;;;;;;52.35;34.47;;;;;;;;;;5059380;28;20115;-79
2020/12/09 05:50:06;;;;;;;56.05;34.75;;;;;;;;;;5060759;28;20063;-79
2020/12/09 05:52:52;;;;;;;55.08;33.63;;;;;;;;;;5058323;28;20532;-79
2020/12/09 05:55:37;;;;;;;56.53;34.38;;;;;;;;;;5057426;28;20020;-79
2020/12/09 05:58:23;;;;;;;55.65;34.55;;;;;;;;;;5057523;28;20169;-79
2020/12/09 06:01:10;;;;;;;58.15;35.35;;;;;;;;;;5056864;28;20412;-79
2020/12/09 06:03:56;;;;;;;53.03;31.70;;;;;;;;;;5057725;28;20388;-79
2020/12/09 06:06:42;;;;;;;52.03;31.73;;;;;;;;;;5053313;28;20025;-79
2020/12/09 06:09:27;;;;;;;52.65;32.15;;;;;;;;;;5057276;28;20033;-79
2020/12/09 06:12:13;;;;;;;59.47;34.47;;;;;;;;;;5060031;28;20028;-78
2020/12/09 06:15:17;;;;;;;53.63;32.65;;;;;;;;;;5055764;28;20025;-78
2020/12/09 06:18:02;;;;;;;59.90;35.90;;;;;;;;;;5054343;28;20017;-79
2020/12/09 06:20:47;;;;;;;43.25;27.75;;;;;;;;;;5055819;28;20463;-79
2020/12/09 06:23:33;;;;;;;43.10;27.35;;;;;;;;;;5061957;28;20089;-79
2020/12/09 06:26:18;;;;;;;52.22;31.05;;;;;;;;;;5054762;28;20020;-78
2020/12/09 06:29:03;;;;;;;44.88;29.13;;;;;;;;;;5060395;28;20360;-79
2020/12/09 06:31:59;;;;;;;97.93;65.10;;;;;;;;;;5057957;28;20437;-77
2020/12/09 06:35:02;;;;;;;68.90;42.72;;;;;;;;;;5049686;28;20036;-78
2020/12/09 06:38:06;;;;;;;48.10;29.65;;;;;;;;;;5057109;28;20116;-78
2020/12/09 06:40:55;;;;;;;54.72;32.20;;;;;;;;;;5056078;28;20067;-78
2020/12/09 06:43:59;;;;;;;50.25;30.83;;;;;;;;;;5054281;28;20507;-78
2020/12/09 06:46:54;;;;;;;49.35;29.30;;;;;;;;;;5056307;28;20495;-79
2020/12/09 06:49:40;;;;;;;53.08;31.42;;;;;;;;;;5054740;28;20030;-78
2020/12/09 06:52:26;;;;;;;49.60;30.30;;;;;;;;;;5048392;28;20140;-80
2020/12/09 06:55:18;;;;;;;45.75;28.40;;;;;;;;;;5055429;28;20032;-78
2020/12/09 06:58:22;;;;;;;55.58;33.03;;;;;;;;;;5048974;28;20086;-79
2020/12/09 07:01:08;;;;;;;53.42;32.92;;;;;;;;;;5052261;28;20068;-77
2020/12/09 07:03:54;;;;;;;104.32;67.93;;;;;;;;;;5048334;28;20756;-77
2020/12/09 07:06:39;;;;;;;55.42;35.50;;;;;;;;;;5054923;28;20379;-78
2020/12/09 07:09:32;;;;;;;48.30;28.92;;;;;;;;;;5051578;28;20027;-77
2020/12/09 07:12:18;;;;;;;55.00;33.60;;;;;;;;;;5055381;28;20029;-76
2020/12/09 07:15:05;;;;;;;54.85;33.60;;;;;;;;;;5049517;28;20055;-76
2020/12/09 07:17:51;;;;;;;55.40;31.73;;;;;;;;;;5051730;28;20028;-77
2020/12/09 07:20:37;;;;;;;46.13;29.58;;;;;;;;;;5052974;28;20435;-77
2020/12/09 07:23:22;;;;;;;46.88;30.58;;;;;;;;;;5052173;28;20111;-79
2020/12/09 07:26:09;;;;;;;56.40;34.47;;;;;;;;;;5059715;28;20082;-78
2020/12/09 07:28:54;;;;;;;49.10;31.80;;;;;;;;;;5052905;28;20020;-78
2020/12/09 07:31:47;;;;;;;54.97;34.60;;;;;;;;;;5058555;28;20025;-79
2020/12/09 07:34:32;;;;;;;54.88;32.40;;;;;;;;;;5058880;28;20048;-78
2020/12/09 07:37:18;;;;;;;50.03;30.67;;;;;;;;;;5074972;28;20082;-78
2020/12/09 07:40:13;;;;;;;50.80;32.17;;;;;;;;;;5060072;28;20428;-78
2020/12/09 07:43:00;;;;;;;63.33;31.83;;;;;;;;;;5060279;28;20028;-77
2020/12/09 07:45:45;;;;;;;53.60;32.50;;;;;;;;;;5066169;28;20021;-77
2020/12/09 07:48:31;;;;;;;54.90;31.75;;;;;;;;;;5062087;28;20213;-78
2020/12/09 07:51:16;;;;;;;48.78;30.08;;;;;;;;;;5062024;28;20378;-78
2020/12/09 07:54:05;;;;;;;43.75;29.10;;;;;;;;;;5058252;28;20032;-78
2020/12/09 07:56:51;;;;;;;88.33;52.27;;;;;;;;;;5062068;28;20031;-79
2020/12/09 07:59:37;;;;;;;65.07;41.38;;;;;;;;;;5055325;28;20266;-78
2020/12/09 08:02:27;;;;;;;61.05;35.90;;;;;;;;;;5055383;28;20125;-78
2020/12/09 08:05:12;;;;;;;;;;;;;;;;;;5060365;28;20036;-78
2020/12/09 08:08:01;;;;;;;56.83;33.50;;;;;;;;;;5061735;28;19917;-77
2020/12/09 08:10:46;;;;;;;54.92;33.30;;;;;;;;;;5064847;28;20024;-78
2020/12/09 08:13:32;;;;;;;56.58;33.80;;;;;;;;;;5062439;28;20039;-78
2020/12/09 08:16:17;;;;;;;48.55;31.75;;;;;;;;;;5060458;28;20111;-78
2020/12/09 08:19:12;;;;;;;64.90;35.45;;;;;;;;;;5062748;28;20071;-78
2020/12/09 08:22:06;;;;;;;55.50;33.38;;;;;;;;;;5068085;28;20082;-78
2020/12/09 08:25:02;;;;;;;49.17;31.60;;;;;;;;;;5064625;28;20054;-79
2020/12/09 08:27:48;;;;;;;44.35;29.67;;;;;;;;;;5058910;28;20036;-78
2020/12/09 08:30:34;;;;;;;46.08;31.23;;;;;;;;;;5064793;28;20498;-78
2020/12/09 08:33:23;;;;;;;53.45;31.77;;;;;;;;;;5064459;28;20052;-78
2020/12/09 08:36:13;;;;;;;56.00;33.35;;;;;;;;;;5058368;28;20034;-79
2020/12/09 08:39:00;;;;;;;57.40;32.25;;;;;;;;;;5064419;28;20496;-79
2020/12/09 08:41:46;;;;;;;50.00;31.83;;;;;;;;;;5063305;28;20103;-79
2020/12/09 08:44:32;;;;;;;44.63;29.52;;;;;;;;;;5065690;28;20028;-79
2020/12/09 08:47:17;;;;;;;52.55;32.70;;;;;;;;;;5067365;28;20055;-78
2020/12/09 08:50:02;;;;;;;44.28;29.15;;;;;;;;;;5066259;28;20031;-78
2020/12/09 08:52:48;;;;;;;58.60;42.83;;;;;;;;;;5059855;28;20538;-78
2020/12/09 08:55:33;;;;;;;58.83;38.78;;;;;;;;;;5064075;28;20093;-77
2020/12/09 08:58:18;;;;;;;48.28;30.30;;;;;;;;;;5046462;28;20028;-78
2020/12/09 09:01:04;;;;;;;54.53;33.15;;;;;;;;;;5066702;28;20055;-77
2020/12/09 09:03:54;;;;;;;56.50;33.25;;;;;;;;;;5064971;28;20036;-78
2020/12/09 09:06:39;;;;;;;43.30;28.52;;;;;;;;;;5066908;28;20051;-79
2020/12/09 09:09:24;;;;;;;46.67;29.20;;;;;;;;;;5061320;28;20016;-79
2020/12/09 09:12:10;;;;;;;44.72;29.08;;;;;;;;;;5059791;28;20050;-78
2020/12/09 09:14:55;;;;;;;49.20;31.52;;;;;;;;;;5069364;28;20031;-79
2020/12/09 09:17:40;;;;;;;48.97;31.73;;;;;;;;;;5063165;28;20034;-79
2020/12/09 09:20:26;;;;;;;57.85;34.92;;;;;;;;;;5063472;28;20398;-79
2020/12/09 09:23:11;;;;;;;51.03;31.42;;;;;;;;;;5066604;28;20035;-79
2020/12/09 09:25:56;;;;;;;46.30;30.42;;;;;;;;;;5062071;28;20375;-79
2020/12/09 09:28:42;;;;;;;53.80;34.30;;;;;;;;;;5063176;28;20024;-79
2020/12/09 09:31:27;;;;;;;52.45;33.92;;;;;;;;;;5064791;28;20031;-79
2020/12/09 09:34:12;;;;;;;49.40;30.85;;;;;;;;;;5063936;28;20094;-79
2020/12/09 09:36:58;;;;;;;45.72;30.23;;;;;;;;;;5060257;28;20024;-78
2020/12/09 09:39:44;;;;;;;49.97;30.58;;;;;;;;;;5062571;28;20119;-80
2020/12/09 09:42:29;;;;;;;49.00;31.83;;;;;;;;;;5063000;28;20642;-79
2020/12/09 09:45:14;;;;;;;43.05;29.58;;;;;;;;;;5049653;28;20024;-79
2020/12/09 09:47:59;;;;;;;58.80;36.53;;;;;;;;;;5065964;28;20471;-79
2020/12/09 09:50:45;;;;;;;52.63;33.58;;;;;;;;;;5055502;28;20032;-78
2020/12/09 09:53:30;;;;;;;53.83;35.15;;;;;;;;;;5057614;28;20016;-79
2020/12/09 09:56:16;;;;;;;50.50;33.67;;;;;;;;;;5063526;28;20032;-79
2020/12/09 09:59:01;;;;;;;51.20;32.55;;;;;;;;;;5045174;28;20112;-79
2020/12/09 10:01:46;;;;;;;52.40;33.10;;;;;;;;;;5066376;28;20016;-79
2020/12/09 10:04:31;;;;;;;63.65;33.95;;;;;;;;;;5058681;28;20031;-79
2020/12/09 10:07:17;;;;;;;50.40;32.38;;;;;;;;;;5065090;28;20417;-78
2020/12/09 10:10:03;;;;;;;51.08;31.45;;;;;;;;;;5057257;28;20028;-77
2020/12/09 10:12:49;;;;;;;56.47;35.10;;;;;;;;;;5060499;28;20095;-77
2020/12/09 10:15:34;;;;;;;57.63;36.20;;;;;;;;;;5058553;28;20040;-78
2020/12/09 10:18:19;;;;;;;62.17;35.95;;;;;;;;;;5064306;28;20123;-78
2020/12/09 10:21:05;;;;;;;58.67;37.08;;;;;;;;;;5061430;28;20486;-78
2020/12/09 10:23:50;;;;;;;54.28;34.13;;;;;;;;;;5071104;28;20020;-78
2020/12/09 10:26:36;;;;;;;52.58;33.88;;;;;;;;;;5065201;28;20028;-78
2020/12/09 10:29:22;;;;;;;54.13;35.58;;;;;;;;;;5058892;28;20020;-78
2020/12/09 10:32:07;;;;;;;54.88;34.70;;;;;;;;;;5061037;28;20498;-80
2020/12/09 10:34:54;;;;;;;58.25;35.78;;;;;;;;;;5063596;28;20131;-79
2020/12/09 10:37:40;;;;;;;51.08;33.97;;;;;;;;;;5056800;28;20040;-78
2020/12/09 10:40:25;;;;;;;52.13;34.80;;;;;;;;;;5056383;28;20032;-79
2020/12/09 10:43:10;;;;;;;58.13;36.63;;;;;;;;;;5060930;28;20036;-79
2020/12/09 10:45:56;;;;;;;51.33;34.13;;;;;;;;;;5059028;28;20031;-79
2020/12/09 10:48:41;;;;;;;53.03;34.90;;;;;;;;;;5067307;28;20089;-79
2020/12/09 10:51:27;;;;;;;52.95;32.53;;;;;;;;;;5057205;28;20028;-79
2020/12/09 10:54:13;;;;;;;50.42;32.03;;;;;;;;;;5060204;28;20069;-78
2020/12/09 10:57:00;;;;;;;46.17;31.13;;;;;;;;;;5059412;28;20529;-79
2020/12/09 10:59:45;;;;;;;47.15;30.23;;;;;;;;;;5068717;28;20391;-79
2020/12/09 11:02:30;;;;;;;50.38;33.15;;;;;;;;;;5060561;28;20028;-79
2020/12/09 11:05:15;;;;;;;51.20;33.03;;;;;;;;;;5062640;28;20051;-80
2020/12/09 11:08:00;;;;;;;52.17;35.47;;;;;;;;;;5063581;28;20099;-78
2020/12/09 11:10:46;;;;;;;76.75;48.60;;;;;;;;;;5062335;28;20027;-79
2020/12/09 11:13:31;;;;;;;50.67;32.67;;;;;;;;;;5061729;28;20028;-79
2020/12/09 11:16:21;;;;;;;53.85;34.38;;;;;;;;;;5058778;28;20047;-79
2020/12/09 11:19:06;;;;;;;;;;;;;;;;;;5063050;28;20100;-78
2020/12/09 11:21:51;;;;;;;49.10;30.48;;;;;;;;;;5064285;28;19987;-78
2020/12/09 11:24:37;;;;;;;51.10;32.55;;;;;;;;;;5055048;28;20017;-78
2020/12/09 11:27:22;;;;;;;51.67;33.55;;;;;;;;;;5062667;28;20568;-78
2020/12/09 11:30:07;;;;;;;51.47;32.42;;;;;;;;;;5061393;28;20443;-77
2020/12/09 11:32:52;;;;;;;46.05;30.98;;;;;;;;;;5047190;28;20519;-77
2020/12/09 11:35:38;;;;;;;60.15;41.88;;;;;;;;;;5052755;28;20036;-78
2020/12/09 11:38:23;;;;;;;62.42;39.58;;;;;;;;;;5052876;28;20383;-78
2020/12/09 11:41:08;;;;;;;48.45;32.92;;;;;;;;;;5057064;28;20039;-79
2020/12/09 11:43:57;;;;;;;57.67;34.90;;;;;;;;;;5054551;28;20021;-79
2020/12/09 11:46:42;;;;;;;50.33;32.35;;;;;;;;;;5051078;28;20021;-79
2020/12/09 11:49:27;;;;;;;56.75;33.85;;;;;;;;;;5052366;28;20025;-77
2020/12/09 11:52:13;;;;;;;57.40;34.25;;;;;;;;;;5059081;28;20592;-77
2020/12/09 11:54:58;;;;;;;42.78;28.73;;;;;;;;;;5059561;28;20041;-78
2020/12/09 11:57:43;;;;;;;46.10;29.77;;;;;;;;;;5060801;28;20495;-77
2020/12/09 12:00:28;;;;;;;45.38;31.35;;;;;;;;;;5060411;28;20099;-78
2020/12/09 12:03:13;;;;;;;51.33;33.78;;;;;;;;;;5064367;28;20073;-78
2020/12/09 12:05:59;;;;;;;49.95;32.83;;;;;;;;;;5061852;28;20020;-77
2020/12/09 12:08:44;;;;;;;53.83;33.90;;;;;;;;;;5065407;28;20024;-76
2020/12/09 12:11:29;;;;;;;49.90;32.65;;;;;;;;;;5061353;28;20029;-78
2020/12/09 12:14:14;;;;;;;52.50;35.30;;;;;;;;;;5055907;28;20154;-77
2020/12/09 12:17:00;;;;;;;50.22;32.38;;;;;;;;;;5057089;28;20029;-78
2020/12/09 12:19:45;;;;;;;67.35;42.22;;;;;;;;;;5056608;28;20053;-78
2020/12/09 12:22:30;;;;;;;80.38;48.95;;;;;;;;;;5057927;28;20032;-77
2020/12/09 12:25:15;;;;;;;57.13;36.70;;;;;;;;;;5056788;28;20017;-77
2020/12/09 12:28:01;;;;;;;59.72;34.60;;;;;;;;;;5056520;28;20029;-77
2020/12/09 12:30:46;;;;;;;62.70;37.53;;;;;;;;;;5055349;28;20017;-77
2020/12/09 12:33:31;;;;;;;53.53;34.65;;;;;;;;;;5053333;28;20056;-77
2020/12/09 12:36:19;;;;;;;51.17;31.95;;;;;;;;;;5041990;28;20352;-78
2020/12/09 12:39:05;;;;;;;54.58;34.22;;;;;;;;;;5054765;28;20016;-78
2020/12/09 12:41:50;;;;;;;51.90;32.70;;;;;;;;;;5055362;28;20378;-77
2020/12/09 12:44:35;;;;;;;60.67;36.65;;;;;;;;;;5055192;28;20016;-77
2020/12/09 12:47:20;;;;;;;54.53;32.20;;;;;;;;;;5055213;28;20032;-77
2020/12/09 12:50:06;;;;;;;57.90;32.88;;;;;;;;;;5056000;28;20019;-79
2020/12/09 12:52:51;;;;;;;54.80;32.22;;;;;;;;;;5054006;28;20069;-79
2020/12/09 12:55:37;;;;;;;49.03;30.88;;;;;;;;;;5056713;28;20048;-78
2020/12/09 12:58:22;;;;;;;52.95;31.05;;;;;;;;;;5051961;28;20033;-77
2020/12/09 13:01:08;;;;;;;56.78;33.47;;;;;;;;;;5052469;28;20356;-77
2020/12/09 13:03:53;;;;;;;47.33;30.38;;;;;;;;;;5054761;28;20037;-77
2020/12/09 13:06:39;;;;;;;49.22;31.50;;;;;;;;;;5057669;28;20037;-78
2020/12/09 13:09:24;;;;;;;52.45;31.60;;;;;;;;;;5058755;28;20021;-79
2020/12/09 13:12:09;;;;;;;49.83;28.73;;;;;;;;;;5054716;28;20036;-80
2020/12/09 13:14:54;;;;;;;46.90;29.30;;;;;;;;;;5055556;28;20083;-78
2020/12/09 13:17:40;;;;;;;48.67;29.63;;;;;;;;;;5058103;28;20052;-78
2020/12/09 13:20:25;;;;;;;45.38;28.77;;;;;;;;;;5055903;28;20029;-79
2020/12/09 13:23:10;;;;;;;42.97;27.50;;;;;;;;;;5059540;28;20031;-77
2020/12/09 13:25:55;;;;;;;51.72;32.33;;;;;;;;;;5054717;28;20124;-78
2020/12/09 13:28:41;;;;;;;56.78;31.70;;;;;;;;;;5054886;28;20028;-79
2020/12/09 13:31:29;;;;;;;50.45;30.83;;;;;;;;;;5057634;28;20033;-79
2020/12/09 13:34:14;;;;;;;50.58;31.17;;;;;;;;;;5053985;28;20045;-79
2020/12/09 13:36:59;;;;;;;45.50;27.25;;;;;;;;;;5057558;28;20028;-78
2020/12/09 13:39:45;;;;;;;51.58;33.00;;;;;;;;;;5055048;28;20111;-78
2020/12/09 13:42:30;;;;;;;55.15;31.52;;;;;;;;;;5058362;28;20032;-79
2020/12/09 13:45:15;;;;;;;51.90;31.52;;;;;;;;;;5057559;28;20042;-78
2020/12/09 13:48:01;;;;;;;49.55;30.95;;;;;;;;;;5053423;28;20528;-78
2020/12/09 13:50:46;;;;;;;51.78;30.05;;;;;;;;;;5041247;28;20104;-78
2020/12/09 13:53:31;;;;;;;49.47;29.45;;;;;;;;;;5054269;28;20028;-79
2020/12/09 13:56:17;;;;;;;54.00;32.28;;;;;;;;;;5054573;28;20028;-78
2020/12/09 13:59:03;;;;;;;50.53;31.45;;;;;;;;;;5053604;28;20024;-79
2020/12/09 14:01:49;;;;;;;52.35;30.15;;;;;;;;;;5062882;28;20020;-78
2020/12/09 14:04:34;;;;;;;58.88;35.45;;;;;;;;;;5061411;28;20498;-78
2020/12/09 14:07:19;;;;;;;103.65;66.85;;;;;;;;;;5053525;28;20039;-78
2020/12/09 14:10:04;;;;;;;58.88;36.10;;;;;;;;;;5036503;28;20024;-78
2020/12/09 14:12:52;;;;;;;53.92;31.45;;;;;;;;;;5055994;28;20051;-78
2020/12/09 14:15:37;;;;;;;50.22;29.80;;;;;;;;;;5056855;28;20080;-78
2020/12/09 14:18:22;;;;;;;50.78;30.48;;;;;;;;;;5057020;28;20039;-77
2020/12/09 14:21:08;;;;;;;50.38;31.65;;;;;;;;;;5052551;28;20017;-77
2020/12/09 14:23:54;;;;;;;50.22;29.67;;;;;;;;;;5058172;28;20062;-77
2020/12/09 14:26:39;;;;;;;46.70;28.25;;;;;;;;;;5057444;28;20032;-78
2020/12/09 14:29:25;;;;;;;44.47;27.67;;;;;;;;;;5056537;28;20071;-80
2020/12/09 14:32:11;;;;;;;46.33;27.92;;;;;;;;;;5060393;28;20028;-80
2020/12/09 14:34:56;;;;;;;50.08;31.67;;;;;;;;;;5036200;28;20055;-79
2020/12/09 14:37:41;;;;;;;51.53;31.42;;;;;;;;;;5039584;28;20115;-79
2020/12/09 14:40:26;;;;;;;51.33;31.85;;;;;;;;;;5027908;28;20257;-80
2020/12/09 14:43:11;;;;;;;49.53;28.95;;;;;;;;;;5045960;28;20437;-80
2020/12/09 14:45:57;;;;;;;47.50;29.08;;;;;;;;;;5048381;28;20016;-78
2020/12/09 14:48:43;;;;;;;46.58;28.13;;;;;;;;;;5042073;28;20051;-78
2020/12/09 14:51:28;;;;;;;41.97;27.48;;;;;;;;;;5039970;28;20400;-78
2020/12/09 14:54:14;;;;;;;50.60;32.75;;;;;;;;;;5042015;28;20059;-78
2020/12/09 14:56:59;;;;;;;68.00;49.15;;;;;;;;;;5035287;28;20040;-77
2020/12/09 14:59:45;;;;;;;45.60;30.88;;;;;;;;;;5043770;28;20431;-77
2020/12/09 15:02:35;;;;;;;53.35;32.85;;;;;;;;;;5043070;28;20052;-77
2020/12/09 15:05:20;;;;;;;46.83;30.05;;;;;;;;;;5043221;28;20024;-77
2020/12/09 15:08:05;;;;;;;42.47;28.83;;;;;;;;;;5041430;28;20017;-78
2020/12/09 15:10:50;;;;;;;56.75;34.60;;;;;;;;;;5046434;28;20056;-76
2020/12/09 15:13:35;;;;;;;51.95;32.17;;;;;;;;;;5049396;28;20032;-77
2020/12/09 15:16:22;;;;;;;48.38;31.00;;;;;;;;;;5043379;28;20028;-77
2020/12/09 15:19:07;;;;;;;46.53;27.15;;;;;;;;;;5039856;28;20395;-77
2020/12/09 15:21:53;;;;;;;50.17;31.70;;;;;;;;;;5038661;28;20024;-81
2020/12/09 15:24:38;;;;;;;48.50;28.67;;;;;;;;;;5038494;28;20021;-79
2020/12/09 15:27:23;;;;;;;44.67;29.13;;;;;;;;;;5032529;28;20029;-79
2020/12/09 15:30:08;;;;;;;45.40;30.20;;;;;;;;;;5043618;28;20072;-80
2020/12/09 15:32:54;;;;;;;41.40;27.65;;;;;;;;;;5047269;28;20044;-80
2020/12/09 15:35:39;;;;;;;50.20;29.95;;;;;;;;;;5061336;28;20074;-79
2020/12/09 15:38:24;;;;;;;71.97;44.35;;;;;;;;;;5057347;28;20033;-81
2020/12/09 15:41:09;;;;;;;50.45;30.20;;;;;;;;;;5070202;28;20107;-77
2020/12/09 15:43:55;;;;;;;54.80;32.17;;;;;;;;;;5063630;28;20017;-79
2020/12/09 15:46:40;;;;;;;48.55;29.90;;;;;;;;;;5062811;28;20031;-79
2020/12/09 15:49:25;;;;;;;41.40;26.38;;;;;;;;;;5060939;28;20048;-79
2020/12/09 15:52:11;;;;;;;43.30;26.67;;;;;;;;;;5065988;28;20091;-78
2020/12/09 15:54:56;;;;;;;42.47;25.65;;;;;;;;;;5056575;28;20025;-78
2020/12/09 15:57:42;;;;;;;46.75;28.35;;;;;;;;;;5062448;28;20138;-79
2020/12/09 16:00:28;;;;;;;40.88;27.10;;;;;;;;;;5056455;28;20062;-79
2020/12/09 16:03:13;;;;;;;53.60;33.05;;;;;;;;;;5065422;28;20029;-79
2020/12/09 16:05:58;;;;;;;42.75;26.85;;;;;;;;;;5059864;28;20232;-79
2020/12/09 16:08:43;;;;;;;48.45;27.50;;;;;;;;;;5054746;28;20660;-78